sensor_id;sensor_type;location;lat;lon;timestamp;P1;durP1;ratioP1;P2;durP2;ratioP2
32906;SDS011;19259;51.590;5.320;2022-07-17T00:01:33;6.90;;;1.70;;
32906;SDS011;19259;51.590;5.320;2022-07-17T00:04:00;10.70;;;2.20;;
32906;SDS011;19259;51.590;5.320;2022-07-17T00:06:28;3.27;;;1.45;;
32906;SDS011;19259;51.590;5.320;2022-07-17T00:08:56;4.47;;;1.95;;
32906;SDS011;19259;51.590;5.320;2022-07-17T00:11:23;3.47;;;1.45;;
32906;SDS011;19259;51.590;5.320;2022-07-17T00:13:51;7.40;;;1.98;;
32906;SDS011;19259;51.590;5.320;2022-07-17T00:16:19;6.55;;;2.00;;
32906;SDS011;19259;51.590;5.320;2022-07-17T00:18:47;9.68;;;2.22;;
32906;SDS011;19259;51.590;5.320;2022-07-17T00:21:15;5.22;;;1.62;;
32906;SDS011;19259;51.590;5.320;2022-07-17T00:23:43;9.48;;;2.25;;
32906;SDS011;19259;51.590;5.320;2022-07-17T00:26:10;8.20;;;2.33;;
32906;SDS011;19259;51.590;5.320;2022-07-17T00:28:38;5.28;;;1.98;;
32906;SDS011;19259;51.590;5.320;2022-07-17T00:31:05;10.63;;;2.33;;
32906;SDS011;19259;51.590;5.320;2022-07-17T00:33:33;8.10;;;2.15;;
32906;SDS011;19259;51.590;5.320;2022-07-17T00:36:01;4.45;;;1.75;;
32906;SDS011;19259;51.590;5.320;2022-07-17T00:38:32;5.42;;;2.05;;
32906;SDS011;19259;51.590;5.320;2022-07-17T00:41:00;10.48;;;2.17;;
32906;SDS011;19259;51.590;5.320;2022-07-17T00:43:27;8.95;;;2.40;;
32906;SDS011;19259;51.590;5.320;2022-07-17T00:45:56;7.53;;;2.55;;
32906;SDS011;19259;51.590;5.320;2022-07-17T00:48:25;8.08;;;2.35;;
32906;SDS011;19259;51.590;5.320;2022-07-17T00:50:53;6.97;;;2.50;;
32906;SDS011;19259;51.590;5.320;2022-07-17T00:53:21;7.92;;;2.37;;
32906;SDS011;19259;51.590;5.320;2022-07-17T00:55:50;6.53;;;2.52;;
32906;SDS011;19259;51.590;5.320;2022-07-17T00:58:22;5.05;;;2.27;;
32906;SDS011;19259;51.590;5.320;2022-07-17T01:00:52;10.58;;;2.60;;
32906;SDS011;19259;51.590;5.320;2022-07-17T01:03:21;8.65;;;2.45;;
32906;SDS011;19259;51.590;5.320;2022-07-17T01:05:50;5.45;;;2.47;;
32906;SDS011;19259;51.590;5.320;2022-07-17T01:08:18;8.80;;;2.67;;
32906;SDS011;19259;51.590;5.320;2022-07-17T01:10:50;7.85;;;2.65;;
32906;SDS011;19259;51.590;5.320;2022-07-17T01:13:17;4.87;;;2.70;;
32906;SDS011;19259;51.590;5.320;2022-07-17T01:15:46;11.15;;;3.00;;
32906;SDS011;19259;51.590;5.320;2022-07-17T01:18:14;7.87;;;2.27;;
32906;SDS011;19259;51.590;5.320;2022-07-17T01:20:43;7.53;;;2.47;;
32906;SDS011;19259;51.590;5.320;2022-07-17T01:23:13;7.10;;;2.60;;
32906;SDS011;19259;51.590;5.320;2022-07-17T01:25:44;6.67;;;2.72;;
32906;SDS011;19259;51.590;5.320;2022-07-17T01:28:11;6.45;;;2.40;;
32906;SDS011;19259;51.590;5.320;2022-07-17T01:30:46;6.10;;;2.42;;
32906;SDS011;19259;51.590;5.320;2022-07-17T01:33:15;4.50;;;2.58;;
32906;SDS011;19259;51.590;5.320;2022-07-17T01:35:44;7.53;;;2.62;;
32906;SDS011;19259;51.590;5.320;2022-07-17T01:38:12;5.00;;;2.70;;
32906;SDS011;19259;51.590;5.320;2022-07-17T01:40:39;7.00;;;2.87;;
32906;SDS011;19259;51.590;5.320;2022-07-17T01:43:07;6.67;;;2.83;;
32906;SDS011;19259;51.590;5.320;2022-07-17T01:45:35;5.33;;;2.55;;
32906;SDS011;19259;51.590;5.320;2022-07-17T01:48:02;6.62;;;2.45;;
32906;SDS011;19259;51.590;5.320;2022-07-17T01:50:30;10.18;;;2.85;;
32906;SDS011;19259;51.590;5.320;2022-07-17T01:52:58;6.62;;;3.10;;
32906;SDS011;19259;51.590;5.320;2022-07-17T01:55:25;7.08;;;2.80;;
32906;SDS011;19259;51.590;5.320;2022-07-17T01:57:53;8.80;;;3.45;;
32906;SDS011;19259;51.590;5.320;2022-07-17T02:00:21;6.62;;;2.67;;
32906;SDS011;19259;51.590;5.320;2022-07-17T02:02:50;6.17;;;2.98;;
32906;SDS011;19259;51.590;5.320;2022-07-17T02:05:17;9.43;;;3.70;;
32906;SDS011;19259;51.590;5.320;2022-07-17T02:07:45;7.80;;;3.33;;
32906;SDS011;19259;51.590;5.320;2022-07-17T02:10:13;11.55;;;3.27;;
32906;SDS011;19259;51.590;5.320;2022-07-17T02:12:41;10.00;;;2.90;;
32906;SDS011;19259;51.590;5.320;2022-07-17T02:15:10;6.67;;;2.83;;
32906;SDS011;19259;51.590;5.320;2022-07-17T02:17:39;9.00;;;2.85;;
32906;SDS011;19259;51.590;5.320;2022-07-17T02:20:08;7.53;;;3.22;;
32906;SDS011;19259;51.590;5.320;2022-07-17T02:22:37;9.05;;;3.20;;
32906;SDS011;19259;51.590;5.320;2022-07-17T02:25:05;6.85;;;2.87;;
32906;SDS011;19259;51.590;5.320;2022-07-17T02:27:34;5.85;;;2.85;;
32906;SDS011;19259;51.590;5.320;2022-07-17T02:30:07;8.98;;;3.67;;
32906;SDS011;19259;51.590;5.320;2022-07-17T02:32:31;5.92;;;2.80;;
32906;SDS011;19259;51.590;5.320;2022-07-17T02:34:59;7.60;;;3.00;;
32906;SDS011;19259;51.590;5.320;2022-07-17T02:37:29;8.10;;;3.20;;
32906;SDS011;19259;51.590;5.320;2022-07-17T02:39:57;10.65;;;3.10;;
32906;SDS011;19259;51.590;5.320;2022-07-17T02:42:25;9.80;;;2.72;;
32906;SDS011;19259;51.590;5.320;2022-07-17T02:44:54;7.70;;;2.90;;
32906;SDS011;19259;51.590;5.320;2022-07-17T02:47:33;7.00;;;2.67;;
32906;SDS011;19259;51.590;5.320;2022-07-17T02:49:57;8.38;;;3.12;;
32906;SDS011;19259;51.590;5.320;2022-07-17T02:52:27;5.53;;;3.02;;
32906;SDS011;19259;51.590;5.320;2022-07-17T02:54:54;8.50;;;2.83;;
32906;SDS011;19259;51.590;5.320;2022-07-17T02:57:22;6.83;;;3.30;;
32906;SDS011;19259;51.590;5.320;2022-07-17T02:59:50;7.05;;;3.37;;
32906;SDS011;19259;51.590;5.320;2022-07-17T03:02:17;7.17;;;3.35;;
32906;SDS011;19259;51.590;5.320;2022-07-17T03:04:45;8.20;;;2.72;;
32906;SDS011;19259;51.590;5.320;2022-07-17T03:07:16;13.38;;;3.33;;
32906;SDS011;19259;51.590;5.320;2022-07-17T03:09:46;8.58;;;3.37;;
32906;SDS011;19259;51.590;5.320;2022-07-17T03:12:13;10.78;;;3.67;;
32906;SDS011;19259;51.590;5.320;2022-07-17T03:14:41;9.28;;;3.67;;
32906;SDS011;19259;51.590;5.320;2022-07-17T03:17:09;9.75;;;2.92;;
32906;SDS011;19259;51.590;5.320;2022-07-17T03:19:36;6.28;;;2.98;;
32906;SDS011;19259;51.590;5.320;2022-07-17T03:22:04;7.50;;;3.37;;
32906;SDS011;19259;51.590;5.320;2022-07-17T03:24:32;7.97;;;3.20;;
32906;SDS011;19259;51.590;5.320;2022-07-17T03:26:59;6.00;;;2.87;;
32906;SDS011;19259;51.590;5.320;2022-07-17T03:29:27;9.45;;;3.20;;
32906;SDS011;19259;51.590;5.320;2022-07-17T03:31:54;5.10;;;2.85;;
32906;SDS011;19259;51.590;5.320;2022-07-17T03:34:22;7.03;;;3.12;;
32906;SDS011;19259;51.590;5.320;2022-07-17T03:36:49;8.80;;;3.25;;
32906;SDS011;19259;51.590;5.320;2022-07-17T03:39:17;9.43;;;3.12;;
32906;SDS011;19259;51.590;5.320;2022-07-17T03:41:45;14.13;;;3.33;;
32906;SDS011;19259;51.590;5.320;2022-07-17T03:44:12;9.15;;;3.65;;
32906;SDS011;19259;51.590;5.320;2022-07-17T03:46:40;8.60;;;4.22;;
32906;SDS011;19259;51.590;5.320;2022-07-17T03:49:07;11.80;;;3.92;;
32906;SDS011;19259;51.590;5.320;2022-07-17T03:51:36;10.08;;;3.87;;
32906;SDS011;19259;51.590;5.320;2022-07-17T03:54:03;7.47;;;3.47;;
32906;SDS011;19259;51.590;5.320;2022-07-17T03:56:31;7.60;;;3.50;;
32906;SDS011;19259;51.590;5.320;2022-07-17T03:58:59;11.03;;;3.27;;
32906;SDS011;19259;51.590;5.320;2022-07-17T04:01:26;8.63;;;4.17;;
32906;SDS011;19259;51.590;5.320;2022-07-17T04:03:54;11.55;;;3.85;;
32906;SDS011;19259;51.590;5.320;2022-07-17T04:06:22;9.38;;;3.22;;
32906;SDS011;19259;51.590;5.320;2022-07-17T04:08:50;5.53;;;3.45;;
32906;SDS011;19259;51.590;5.320;2022-07-17T04:11:18;12.53;;;4.08;;
32906;SDS011;19259;51.590;5.320;2022-07-17T04:13:46;9.98;;;3.80;;
32906;SDS011;19259;51.590;5.320;2022-07-17T04:16:14;9.35;;;3.85;;
32906;SDS011;19259;51.590;5.320;2022-07-17T04:18:41;9.00;;;3.37;;
32906;SDS011;19259;51.590;5.320;2022-07-17T04:21:09;8.48;;;3.95;;
32906;SDS011;19259;51.590;5.320;2022-07-17T04:23:39;10.35;;;3.90;;
32906;SDS011;19259;51.590;5.320;2022-07-17T04:26:06;8.05;;;3.45;;
32906;SDS011;19259;51.590;5.320;2022-07-17T04:28:34;9.20;;;3.60;;
32906;SDS011;19259;51.590;5.320;2022-07-17T04:31:02;12.40;;;4.37;;
32906;SDS011;19259;51.590;5.320;2022-07-17T04:33:30;11.53;;;4.12;;
32906;SDS011;19259;51.590;5.320;2022-07-17T04:35:57;10.18;;;3.90;;
32906;SDS011;19259;51.590;5.320;2022-07-17T04:38:25;10.53;;;4.33;;
32906;SDS011;19259;51.590;5.320;2022-07-17T04:40:52;8.35;;;3.83;;
32906;SDS011;19259;51.590;5.320;2022-07-17T04:43:20;12.15;;;3.75;;
32906;SDS011;19259;51.590;5.320;2022-07-17T04:45:48;7.72;;;4.08;;
32906;SDS011;19259;51.590;5.320;2022-07-17T04:48:16;10.68;;;4.40;;
32906;SDS011;19259;51.590;5.320;2022-07-17T04:50:43;8.38;;;4.30;;
32906;SDS011;19259;51.590;5.320;2022-07-17T04:53:11;16.10;;;4.42;;
32906;SDS011;19259;51.590;5.320;2022-07-17T04:55:38;9.93;;;4.10;;
32906;SDS011;19259;51.590;5.320;2022-07-17T04:58:06;11.33;;;4.47;;
32906;SDS011;19259;51.590;5.320;2022-07-17T05:00:34;9.75;;;4.12;;
32906;SDS011;19259;51.590;5.320;2022-07-17T05:03:01;9.60;;;4.15;;
32906;SDS011;19259;51.590;5.320;2022-07-17T05:05:29;7.97;;;4.10;;
32906;SDS011;19259;51.590;5.320;2022-07-17T05:07:56;9.18;;;4.08;;
32906;SDS011;19259;51.590;5.320;2022-07-17T05:10:25;9.25;;;4.00;;
32906;SDS011;19259;51.590;5.320;2022-07-17T05:12:53;7.45;;;3.60;;
32906;SDS011;19259;51.590;5.320;2022-07-17T05:15:20;13.65;;;4.33;;
32906;SDS011;19259;51.590;5.320;2022-07-17T05:17:49;12.85;;;4.47;;
32906;SDS011;19259;51.590;5.320;2022-07-17T05:20:16;13.25;;;4.15;;
32906;SDS011;19259;51.590;5.320;2022-07-17T05:22:44;12.33;;;4.22;;
32906;SDS011;19259;51.590;5.320;2022-07-17T05:25:11;9.95;;;4.58;;
32906;SDS011;19259;51.590;5.320;2022-07-17T05:27:39;10.65;;;4.15;;
32906;SDS011;19259;51.590;5.320;2022-07-17T05:30:07;13.30;;;4.30;;
32906;SDS011;19259;51.590;5.320;2022-07-17T05:32:35;9.10;;;4.03;;
32906;SDS011;19259;51.590;5.320;2022-07-17T05:35:02;8.63;;;3.87;;
32906;SDS011;19259;51.590;5.320;2022-07-17T05:37:31;10.65;;;3.65;;
32906;SDS011;19259;51.590;5.320;2022-07-17T05:39:59;9.83;;;3.65;;
32906;SDS011;19259;51.590;5.320;2022-07-17T05:42:26;11.18;;;3.65;;
32906;SDS011;19259;51.590;5.320;2022-07-17T05:44:54;8.70;;;3.77;;
32906;SDS011;19259;51.590;5.320;2022-07-17T05:47:26;14.25;;;3.62;;
32906;SDS011;19259;51.590;5.320;2022-07-17T05:49:51;9.08;;;3.67;;
32906;SDS011;19259;51.590;5.320;2022-07-17T05:52:18;6.55;;;3.22;;
32906;SDS011;19259;51.590;5.320;2022-07-17T05:54:46;7.22;;;3.47;;
32906;SDS011;19259;51.590;5.320;2022-07-17T05:57:13;7.67;;;3.62;;
32906;SDS011;19259;51.590;5.320;2022-07-17T05:59:41;8.63;;;3.85;;
32906;SDS011;19259;51.590;5.320;2022-07-17T06:02:09;8.90;;;3.87;;
32906;SDS011;19259;51.590;5.320;2022-07-17T06:04:36;6.87;;;2.50;;
32906;SDS011;19259;51.590;5.320;2022-07-17T06:07:04;6.67;;;2.75;;
32906;SDS011;19259;51.590;5.320;2022-07-17T06:09:31;8.10;;;3.65;;
32906;SDS011;19259;51.590;5.320;2022-07-17T06:11:59;5.12;;;3.25;;
32906;SDS011;19259;51.590;5.320;2022-07-17T06:14:26;7.12;;;3.60;;
32906;SDS011;19259;51.590;5.320;2022-07-17T06:16:54;4.28;;;1.80;;
32906;SDS011;19259;51.590;5.320;2022-07-17T06:19:21;6.95;;;2.70;;
32906;SDS011;19259;51.590;5.320;2022-07-17T06:21:49;9.60;;;2.95;;
32906;SDS011;19259;51.590;5.320;2022-07-17T06:24:16;9.35;;;3.00;;
32906;SDS011;19259;51.590;5.320;2022-07-17T06:26:44;8.48;;;2.98;;
32906;SDS011;19259;51.590;5.320;2022-07-17T06:29:12;6.62;;;2.27;;
32906;SDS011;19259;51.590;5.320;2022-07-17T06:31:39;6.50;;;2.90;;
32906;SDS011;19259;51.590;5.320;2022-07-17T06:34:10;9.00;;;3.47;;
32906;SDS011;19259;51.590;5.320;2022-07-17T06:36:37;11.33;;;3.20;;
32906;SDS011;19259;51.590;5.320;2022-07-17T06:39:05;4.25;;;2.45;;
32906;SDS011;19259;51.590;5.320;2022-07-17T06:41:32;7.28;;;2.80;;
32906;SDS011;19259;51.590;5.320;2022-07-17T06:44:00;9.88;;;3.00;;
32906;SDS011;19259;51.590;5.320;2022-07-17T06:46:28;8.83;;;3.12;;
32906;SDS011;19259;51.590;5.320;2022-07-17T06:48:55;5.97;;;2.75;;
32906;SDS011;19259;51.590;5.320;2022-07-17T06:51:23;9.10;;;2.90;;
32906;SDS011;19259;51.590;5.320;2022-07-17T06:53:50;7.72;;;3.08;;
32906;SDS011;19259;51.590;5.320;2022-07-17T06:56:18;7.70;;;2.45;;
32906;SDS011;19259;51.590;5.320;2022-07-17T06:58:45;9.45;;;3.90;;
32906;SDS011;19259;51.590;5.320;2022-07-17T07:01:13;6.53;;;2.67;;
32906;SDS011;19259;51.590;5.320;2022-07-17T07:03:40;12.73;;;3.10;;
32906;SDS011;19259;51.590;5.320;2022-07-17T07:06:08;5.67;;;2.55;;
32906;SDS011;19259;51.590;5.320;2022-07-17T07:08:35;4.90;;;2.90;;
32906;SDS011;19259;51.590;5.320;2022-07-17T07:11:03;4.85;;;2.87;;
32906;SDS011;19259;51.590;5.320;2022-07-17T07:13:31;4.37;;;1.95;;
32906;SDS011;19259;51.590;5.320;2022-07-17T07:15:58;16.97;;;3.35;;
32906;SDS011;19259;51.590;5.320;2022-07-17T07:18:26;6.83;;;2.72;;
32906;SDS011;19259;51.590;5.320;2022-07-17T07:20:53;11.55;;;3.72;;
32906;SDS011;19259;51.590;5.320;2022-07-17T07:23:21;8.35;;;3.00;;
32906;SDS011;19259;51.590;5.320;2022-07-17T07:25:48;8.28;;;2.90;;
32906;SDS011;19259;51.590;5.320;2022-07-17T07:28:16;12.60;;;2.87;;
32906;SDS011;19259;51.590;5.320;2022-07-17T07:30:48;5.22;;;2.90;;
32906;SDS011;19259;51.590;5.320;2022-07-17T07:33:16;8.68;;;2.55;;
32906;SDS011;19259;51.590;5.320;2022-07-17T07:35:44;5.67;;;2.35;;
32906;SDS011;19259;51.590;5.320;2022-07-17T07:38:11;9.28;;;2.70;;
32906;SDS011;19259;51.590;5.320;2022-07-17T07:40:39;9.63;;;2.62;;
32906;SDS011;19259;51.590;5.320;2022-07-17T07:43:06;7.80;;;2.65;;
32906;SDS011;19259;51.590;5.320;2022-07-17T07:45:34;6.70;;;3.05;;
32906;SDS011;19259;51.590;5.320;2022-07-17T07:48:01;5.28;;;2.33;;
32906;SDS011;19259;51.590;5.320;2022-07-17T07:50:32;4.90;;;2.67;;
32906;SDS011;19259;51.590;5.320;2022-07-17T07:52:59;9.73;;;2.45;;
32906;SDS011;19259;51.590;5.320;2022-07-17T07:55:27;10.53;;;2.80;;
32906;SDS011;19259;51.590;5.320;2022-07-17T07:58:05;8.73;;;2.65;;
32906;SDS011;19259;51.590;5.320;2022-07-17T08:00:38;5.53;;;2.35;;
32906;SDS011;19259;51.590;5.320;2022-07-17T08:03:07;11.22;;;2.90;;
32906;SDS011;19259;51.590;5.320;2022-07-17T08:05:34;7.35;;;2.27;;
32906;SDS011;19259;51.590;5.320;2022-07-17T08:08:02;5.62;;;2.00;;
32906;SDS011;19259;51.590;5.320;2022-07-17T08:10:30;4.25;;;1.77;;
32906;SDS011;19259;51.590;5.320;2022-07-17T08:12:59;8.95;;;2.10;;
32906;SDS011;19259;51.590;5.320;2022-07-17T08:15:27;3.47;;;1.62;;
32906;SDS011;19259;51.590;5.320;2022-07-17T08:17:54;4.67;;;1.80;;
32906;SDS011;19259;51.590;5.320;2022-07-17T08:20:22;3.92;;;1.60;;
32906;SDS011;19259;51.590;5.320;2022-07-17T08:22:50;5.75;;;1.77;;
32906;SDS011;19259;51.590;5.320;2022-07-17T08:25:18;5.50;;;1.52;;
32906;SDS011;19259;51.590;5.320;2022-07-17T08:27:46;6.35;;;1.72;;
32906;SDS011;19259;51.590;5.320;2022-07-17T08:30:13;6.47;;;2.00;;
32906;SDS011;19259;51.590;5.320;2022-07-17T08:32:41;4.55;;;1.65;;
32906;SDS011;19259;51.590;5.320;2022-07-17T08:35:09;7.33;;;1.85;;
32906;SDS011;19259;51.590;5.320;2022-07-17T08:37:45;4.20;;;1.50;;
32906;SDS011;19259;51.590;5.320;2022-07-17T08:40:29;4.62;;;1.35;;
32906;SDS011;19259;51.590;5.320;2022-07-17T08:42:57;5.95;;;1.70;;
32906;SDS011;19259;51.590;5.320;2022-07-17T08:45:26;4.67;;;1.07;;
32906;SDS011;19259;51.590;5.320;2022-07-17T08:47:55;6.65;;;1.57;;
32906;SDS011;19259;51.590;5.320;2022-07-17T08:50:24;7.12;;;1.72;;
32906;SDS011;19259;51.590;5.320;2022-07-17T08:52:55;4.55;;;1.12;;
32906;SDS011;19259;51.590;5.320;2022-07-17T08:55:23;7.90;;;1.60;;
32906;SDS011;19259;51.590;5.320;2022-07-17T08:57:51;4.47;;;1.42;;
32906;SDS011;19259;51.590;5.320;2022-07-17T09:00:19;4.87;;;1.30;;
32906;SDS011;19259;51.590;5.320;2022-07-17T09:02:56;10.05;;;2.05;;
32906;SDS011;19259;51.590;5.320;2022-07-17T09:05:33;6.10;;;1.82;;
32906;SDS011;19259;51.590;5.320;2022-07-17T09:08:06;4.08;;;1.32;;
32906;SDS011;19259;51.590;5.320;2022-07-17T09:10:37;8.00;;;1.47;;
32906;SDS011;19259;51.590;5.320;2022-07-17T09:13:18;6.70;;;1.62;;
32906;SDS011;19259;51.590;5.320;2022-07-17T09:15:48;5.62;;;1.80;;
32906;SDS011;19259;51.590;5.320;2022-07-17T09:18:13;4.28;;;1.42;;
32906;SDS011;19259;51.590;5.320;2022-07-17T09:20:49;6.92;;;1.40;;
32906;SDS011;19259;51.590;5.320;2022-07-17T09:23:20;5.10;;;1.25;;
32906;SDS011;19259;51.590;5.320;2022-07-17T09:25:46;9.85;;;1.72;;
32906;SDS011;19259;51.590;5.320;2022-07-17T09:28:15;5.22;;;1.62;;
32906;SDS011;19259;51.590;5.320;2022-07-17T09:30:44;3.45;;;1.42;;
32906;SDS011;19259;51.590;5.320;2022-07-17T09:33:19;2.70;;;1.22;;
32906;SDS011;19259;51.590;5.320;2022-07-17T09:35:50;6.80;;;1.45;;
32906;SDS011;19259;51.590;5.320;2022-07-17T09:38:25;5.28;;;1.40;;
32906;SDS011;19259;51.590;5.320;2022-07-17T09:41:01;6.35;;;1.65;;
32906;SDS011;19259;51.590;5.320;2022-07-17T09:43:43;5.55;;;1.42;;
32906;SDS011;19259;51.590;5.320;2022-07-17T09:46:10;5.47;;;1.67;;
32906;SDS011;19259;51.590;5.320;2022-07-17T09:48:43;10.03;;;1.77;;
32906;SDS011;19259;51.590;5.320;2022-07-17T09:51:16;5.58;;;1.30;;
32906;SDS011;19259;51.590;5.320;2022-07-17T09:53:46;8.88;;;1.50;;
32906;SDS011;19259;51.590;5.320;2022-07-17T09:56:16;7.33;;;1.90;;
32906;SDS011;19259;51.590;5.320;2022-07-17T09:58:50;4.20;;;1.12;;
32906;SDS011;19259;51.590;5.320;2022-07-17T10:01:20;5.72;;;1.30;;
32906;SDS011;19259;51.590;5.320;2022-07-17T10:03:51;10.05;;;1.47;;
32906;SDS011;19259;51.590;5.320;2022-07-17T10:06:22;7.33;;;2.05;;
32906;SDS011;19259;51.590;5.320;2022-07-17T10:08:51;5.47;;;1.65;;
32906;SDS011;19259;51.590;5.320;2022-07-17T10:11:22;6.65;;;2.00;;
32906;SDS011;19259;51.590;5.320;2022-07-17T10:13:51;6.58;;;1.47;;
32906;SDS011;19259;51.590;5.320;2022-07-17T10:16:29;5.95;;;2.08;;
32906;SDS011;19259;51.590;5.320;2022-07-17T10:18:53;3.50;;;1.40;;
32906;SDS011;19259;51.590;5.320;2022-07-17T10:21:23;4.37;;;1.42;;
32906;SDS011;19259;51.590;5.320;2022-07-17T10:26:33;3.62;;;1.32;;
32906;SDS011;19259;51.590;5.320;2022-07-17T10:29:03;5.15;;;1.60;;
32906;SDS011;19259;51.590;5.320;2022-07-17T10:31:35;6.60;;;1.47;;
32906;SDS011;19259;51.590;5.320;2022-07-17T10:34:04;6.12;;;1.95;;
32906;SDS011;19259;51.590;5.320;2022-07-17T10:36:36;3.20;;;1.10;;
32906;SDS011;19259;51.590;5.320;2022-07-17T10:39:19;7.35;;;1.35;;
32906;SDS011;19259;51.590;5.320;2022-07-17T10:42:06;3.77;;;1.70;;
32906;SDS011;19259;51.590;5.320;2022-07-17T10:44:24;6.92;;;1.50;;
32906;SDS011;19259;51.590;5.320;2022-07-17T10:46:53;6.05;;;1.52;;
32906;SDS011;19259;51.590;5.320;2022-07-17T10:49:22;3.45;;;1.05;;
32906;SDS011;19259;51.590;5.320;2022-07-17T10:51:50;6.33;;;1.20;;
32906;SDS011;19259;51.590;5.320;2022-07-17T10:54:19;4.33;;;1.62;;
32906;SDS011;19259;51.590;5.320;2022-07-17T10:56:48;5.45;;;2.17;;
32906;SDS011;19259;51.590;5.320;2022-07-17T10:59:15;7.55;;;1.40;;
32906;SDS011;19259;51.590;5.320;2022-07-17T11:01:44;3.08;;;1.10;;
32906;SDS011;19259;51.590;5.320;2022-07-17T11:04:11;7.33;;;2.30;;
32906;SDS011;19259;51.590;5.320;2022-07-17T11:06:39;6.67;;;1.70;;
32906;SDS011;19259;51.590;5.320;2022-07-17T11:09:07;7.25;;;1.80;;
32906;SDS011;19259;51.590;5.320;2022-07-17T11:11:37;6.20;;;1.87;;
32906;SDS011;19259;51.590;5.320;2022-07-17T11:14:07;5.85;;;1.50;;
32906;SDS011;19259;51.590;5.320;2022-07-17T11:16:49;4.20;;;1.85;;
32906;SDS011;19259;51.590;5.320;2022-07-17T11:19:34;9.08;;;1.90;;
32906;SDS011;19259;51.590;5.320;2022-07-17T11:22:10;4.20;;;1.70;;
32906;SDS011;19259;51.590;5.320;2022-07-17T11:27:10;6.28;;;1.90;;
32906;SDS011;19259;51.590;5.320;2022-07-17T11:29:39;7.37;;;1.67;;
32906;SDS011;19259;51.590;5.320;2022-07-17T11:32:07;4.28;;;1.72;;
32906;SDS011;19259;51.590;5.320;2022-07-17T11:34:35;7.03;;;1.80;;
32906;SDS011;19259;51.590;5.320;2022-07-17T11:37:03;3.55;;;1.50;;
32906;SDS011;19259;51.590;5.320;2022-07-17T11:39:39;5.00;;;1.52;;
32906;SDS011;19259;51.590;5.320;2022-07-17T11:42:13;8.03;;;2.10;;
32906;SDS011;19259;51.590;5.320;2022-07-17T11:44:42;4.70;;;1.60;;
32906;SDS011;19259;51.590;5.320;2022-07-17T11:47:11;7.42;;;2.00;;
32906;SDS011;19259;51.590;5.320;2022-07-17T11:49:40;4.97;;;1.90;;
32906;SDS011;19259;51.590;5.320;2022-07-17T11:52:12;5.28;;;1.45;;
32906;SDS011;19259;51.590;5.320;2022-07-17T11:54:54;3.90;;;1.50;;
32906;SDS011;19259;51.590;5.320;2022-07-17T11:57:23;6.62;;;1.50;;
32906;SDS011;19259;51.590;5.320;2022-07-17T12:00:04;4.30;;;1.62;;
32906;SDS011;19259;51.590;5.320;2022-07-17T12:02:29;6.97;;;1.85;;
32906;SDS011;19259;51.590;5.320;2022-07-17T12:04:58;4.85;;;1.37;;
32906;SDS011;19259;51.590;5.320;2022-07-17T12:07:26;2.85;;;1.20;;
32906;SDS011;19259;51.590;5.320;2022-07-17T12:10:15;5.70;;;1.65;;
32906;SDS011;19259;51.590;5.320;2022-07-17T12:12:59;6.05;;;1.67;;
32906;SDS011;19259;51.590;5.320;2022-07-17T12:15:37;2.70;;;1.27;;
32906;SDS011;19259;51.590;5.320;2022-07-17T12:18:24;7.08;;;1.77;;
32906;SDS011;19259;51.590;5.320;2022-07-17T12:20:49;10.38;;;2.10;;
32906;SDS011;19259;51.590;5.320;2022-07-17T12:23:25;5.08;;;1.42;;
32906;SDS011;19259;51.590;5.320;2022-07-17T12:28:38;5.33;;;1.32;;
32906;SDS011;19259;51.590;5.320;2022-07-17T12:31:10;6.53;;;1.50;;
32906;SDS011;19259;51.590;5.320;2022-07-17T12:33:39;4.33;;;1.55;;
32906;SDS011;19259;51.590;5.320;2022-07-17T12:36:07;3.70;;;1.45;;
32906;SDS011;19259;51.590;5.320;2022-07-17T12:38:35;4.17;;;1.50;;
32906;SDS011;19259;51.590;5.320;2022-07-17T12:41:04;5.28;;;1.80;;
32906;SDS011;19259;51.590;5.320;2022-07-17T12:43:32;4.40;;;1.50;;
32906;SDS011;19259;51.590;5.320;2022-07-17T12:46:00;8.20;;;1.90;;
32906;SDS011;19259;51.590;5.320;2022-07-17T12:48:27;7.33;;;1.60;;
32906;SDS011;19259;51.590;5.320;2022-07-17T12:50:55;4.40;;;1.40;;
32906;SDS011;19259;51.590;5.320;2022-07-17T12:53:23;19.55;;;1.95;;
32906;SDS011;19259;51.590;5.320;2022-07-17T12:55:51;5.78;;;1.67;;
32906;SDS011;19259;51.590;5.320;2022-07-17T12:58:20;7.62;;;1.90;;
32906;SDS011;19259;51.590;5.320;2022-07-17T13:00:47;4.40;;;1.50;;
32906;SDS011;19259;51.590;5.320;2022-07-17T13:03:15;5.20;;;1.82;;
32906;SDS011;19259;51.590;5.320;2022-07-17T13:05:43;5.67;;;1.77;;
32906;SDS011;19259;51.590;5.320;2022-07-17T13:08:10;5.28;;;1.80;;
32906;SDS011;19259;51.590;5.320;2022-07-17T13:10:38;5.00;;;1.37;;
32906;SDS011;19259;51.590;5.320;2022-07-17T13:13:05;4.47;;;1.60;;
32906;SDS011;19259;51.590;5.320;2022-07-17T13:15:33;3.27;;;1.40;;
32906;SDS011;19259;51.590;5.320;2022-07-17T13:18:00;4.70;;;1.98;;
32906;SDS011;19259;51.590;5.320;2022-07-17T13:20:28;3.72;;;1.75;;
32906;SDS011;19259;51.590;5.320;2022-07-17T13:22:58;7.22;;;2.10;;
32906;SDS011;19259;51.590;5.320;2022-07-17T13:25:25;7.05;;;1.95;;
32906;SDS011;19259;51.590;5.320;2022-07-17T13:27:53;4.12;;;1.35;;
32906;SDS011;19259;51.590;5.320;2022-07-17T13:30:20;5.12;;;1.67;;
32906;SDS011;19259;51.590;5.320;2022-07-17T13:32:48;7.10;;;2.17;;
32906;SDS011;19259;51.590;5.320;2022-07-17T13:35:16;5.53;;;1.72;;
32906;SDS011;19259;51.590;5.320;2022-07-17T13:37:44;5.22;;;2.02;;
32906;SDS011;19259;51.590;5.320;2022-07-17T13:40:12;3.40;;;1.50;;
32906;SDS011;19259;51.590;5.320;2022-07-17T13:42:39;7.35;;;1.67;;
32906;SDS011;19259;51.590;5.320;2022-07-17T13:45:07;3.52;;;1.47;;
32906;SDS011;19259;51.590;5.320;2022-07-17T13:47:35;4.10;;;1.50;;
32906;SDS011;19259;51.590;5.320;2022-07-17T13:50:05;3.72;;;1.20;;
32906;SDS011;19259;51.590;5.320;2022-07-17T13:52:33;3.47;;;1.50;;
32906;SDS011;19259;51.590;5.320;2022-07-17T13:55:06;5.90;;;1.72;;
32906;SDS011;19259;51.590;5.320;2022-07-17T13:57:34;6.12;;;1.45;;
32906;SDS011;19259;51.590;5.320;2022-07-17T14:00:02;4.97;;;1.60;;
32906;SDS011;19259;51.590;5.320;2022-07-17T14:02:30;4.30;;;1.32;;
32906;SDS011;19259;51.590;5.320;2022-07-17T14:05:00;4.70;;;1.30;;
32906;SDS011;19259;51.590;5.320;2022-07-17T14:07:28;7.10;;;1.47;;
32906;SDS011;19259;51.590;5.320;2022-07-17T14:09:56;5.05;;;1.42;;
32906;SDS011;19259;51.590;5.320;2022-07-17T14:12:24;4.70;;;1.50;;
32906;SDS011;19259;51.590;5.320;2022-07-17T14:14:52;3.45;;;1.27;;
32906;SDS011;19259;51.590;5.320;2022-07-17T14:17:19;4.17;;;1.60;;
32906;SDS011;19259;51.590;5.320;2022-07-17T14:19:47;6.08;;;2.08;;
32906;SDS011;19259;51.590;5.320;2022-07-17T14:22:15;5.30;;;1.55;;
32906;SDS011;19259;51.590;5.320;2022-07-17T14:24:42;4.08;;;1.77;;
32906;SDS011;19259;51.590;5.320;2022-07-17T14:27:10;5.05;;;1.60;;
32906;SDS011;19259;51.590;5.320;2022-07-17T14:29:37;5.22;;;2.05;;
32906;SDS011;19259;51.590;5.320;2022-07-17T14:32:05;4.12;;;1.85;;
32906;SDS011;19259;51.590;5.320;2022-07-17T14:34:34;5.25;;;1.52;;
32906;SDS011;19259;51.590;5.320;2022-07-17T14:37:02;5.03;;;1.40;;
32906;SDS011;19259;51.590;5.320;2022-07-17T14:39:31;5.65;;;1.40;;
32906;SDS011;19259;51.590;5.320;2022-07-17T14:41:59;5.40;;;1.72;;
32906;SDS011;19259;51.590;5.320;2022-07-17T14:44:28;3.47;;;1.37;;
32906;SDS011;19259;51.590;5.320;2022-07-17T14:46:59;4.97;;;1.57;;
32906;SDS011;19259;51.590;5.320;2022-07-17T14:49:27;4.35;;;1.55;;
32906;SDS011;19259;51.590;5.320;2022-07-17T14:51:55;4.47;;;1.57;;
32906;SDS011;19259;51.590;5.320;2022-07-17T14:54:23;6.17;;;1.50;;
32906;SDS011;19259;51.590;5.320;2022-07-17T14:56:52;5.62;;;1.50;;
32906;SDS011;19259;51.590;5.320;2022-07-17T14:59:20;2.50;;;1.22;;
32906;SDS011;19259;51.590;5.320;2022-07-17T15:01:47;5.15;;;1.95;;
32906;SDS011;19259;51.590;5.320;2022-07-17T15:04:15;2.92;;;1.40;;